createdAt,value
2019-04-21T00:02:32.245Z,101439.17
2019-04-21T00:05:17.277Z,101437.68
2019-04-21T00:07:49.334Z,101442.53
2019-04-21T00:10:18.882Z,101437.20
2019-04-21T00:12:47.471Z,101436.23
2019-04-21T00:15:15.775Z,101436.45
2019-04-21T00:17:33.488Z,101442.23
2019-04-21T00:20:17.628Z,101439.80
2019-04-21T00:22:51.608Z,101441.48
2019-04-21T00:25:25.230Z,101434.63
2019-04-21T00:28:00.378Z,101439.68
2019-04-21T00:30:34.133Z,101442.55
2019-04-21T00:32:54.080Z,101437.36
2019-04-21T00:35:22.504Z,101438.01
2019-04-21T00:38:08.290Z,101439.80
2019-04-21T00:40:46.349Z,101430.03
2019-04-21T00:43:12.249Z,101434.59
2019-04-21T00:45:33.753Z,101426.75
2019-04-21T00:48:16.943Z,101431.39
2019-04-21T00:51:04.004Z,101426.91
2019-04-21T00:53:33.843Z,101422.41
2019-04-21T00:56:03.434Z,101426.95
2019-04-21T00:58:30.003Z,101419.13
2019-04-21T01:00:58.908Z,101426.19
2019-04-21T01:03:32.425Z,101424.68
2019-04-21T01:06:16.343Z,101425.94
2019-04-21T01:08:31.335Z,101422.14
2019-04-21T01:10:55.356Z,101419.80
2019-04-21T01:13:56.729Z,101418.17
2019-04-21T01:16:06.886Z,101411.36
2019-04-21T01:18:38.091Z,101405.02
2019-04-21T01:20:46.635Z,101407.88
2019-04-21T01:23:16.759Z,101402.09
2019-04-21T01:26:01.885Z,101408.98
2019-04-21T01:28:36.206Z,101409.03
2019-04-21T01:31:11.105Z,101406.25
2019-04-21T01:33:45.027Z,101399.66
2019-04-21T01:36:12.884Z,101407.36
2019-04-21T01:38:52.410Z,101410.44
2019-04-21T01:41:21.778Z,101402.45
2019-04-21T01:43:45.156Z,101411.52
2019-04-21T01:46:15.395Z,101404.33
2019-04-21T01:48:47.992Z,101409.50
2019-04-21T01:51:13.865Z,101396.25
2019-04-21T01:53:56.737Z,101396.44
2019-04-21T01:56:40.170Z,101397.77
2019-04-21T01:58:56.401Z,101396.13
2019-04-21T02:01:39.202Z,101401.03
2019-04-21T02:04:16.702Z,101393.50
2019-04-21T02:06:44.478Z,101390.68
2019-04-21T02:09:10.124Z,101392.23
2019-04-21T02:11:50.659Z,101394.08
2019-04-21T02:14:22.881Z,101385.41
2019-04-21T02:16:48.267Z,101390.80
2019-04-21T02:19:19.925Z,101391.27
2019-04-21T02:21:43.624Z,101393.06
2019-04-21T02:24:30.744Z,101389.63
2019-04-21T02:26:54.276Z,101386.42
2019-04-21T02:29:29.061Z,101389.30
2019-04-21T02:34:40.950Z,101386.22
2019-04-21T02:37:27.184Z,101379.16
2019-04-21T02:39:53.690Z,101379.53
2019-04-21T02:42:09.756Z,101379.31
2019-04-21T02:47:16.734Z,101378.61
2019-04-21T02:52:20.062Z,101364.20
2019-04-21T02:55:02.693Z,101350.55
2019-04-21T02:57:18.575Z,101349.80
2019-04-21T02:59:59.970Z,101357.55
2019-04-21T03:05:31.021Z,101345.83
2019-04-21T03:13:07.610Z,101344.69
2019-04-21T03:15:29.238Z,101338.17
2019-04-21T03:18:15.085Z,101336.87
2019-04-21T03:20:39.934Z,101336.66
2019-04-21T03:23:07.662Z,101340.61
2019-04-21T03:28:10.278Z,101337.68
2019-04-21T03:38:18.919Z,101338.41
2019-04-21T03:40:39.947Z,101339.27
2019-04-21T03:43:20.453Z,101337.39
2019-04-21T03:45:55.340Z,101336.63
2019-04-21T03:48:36.609Z,101341.63
2019-04-21T03:50:47.273Z,101335.04
2019-04-21T03:53:25.028Z,101339.20
2019-04-21T03:58:35.953Z,101335.70
2019-04-21T04:01:08.282Z,101337.94
2019-04-21T04:04:08.467Z,101334.42
2019-04-21T04:06:45.088Z,101318.79
2019-04-21T04:09:12.808Z,101316.66
2019-04-21T04:11:41.547Z,101317.02
2019-04-21T04:16:35.415Z,101319.87
2019-04-21T04:21:37.545Z,101320.27
2019-04-21T04:26:42.930Z,101312.95
2019-04-21T04:31:42.811Z,101314.36
2019-04-21T04:34:29.272Z,101311.90
2019-04-21T04:37:03.474Z,101297.64
2019-04-21T04:39:42.742Z,101302.63
2019-04-21T04:49:48.185Z,101298.10
2019-04-21T04:57:42.011Z,101293.83
2019-04-21T05:02:27.816Z,101290.31
2019-04-21T05:07:29.846Z,101293.57
2019-04-21T05:09:58.190Z,101287.53
2019-04-21T05:12:17.550Z,101290.21
2019-04-21T05:14:57.085Z,101292.09
2019-04-21T05:22:22.215Z,101283.39
2019-04-21T05:24:44.496Z,101286.36
2019-04-21T05:27:33.621Z,101290.13
2019-04-21T05:30:21.991Z,101284.52
2019-04-21T05:32:57.583Z,101281.13
2019-04-21T05:35:21.536Z,101284.31
2019-04-21T05:37:58.625Z,101274.58
2019-04-21T05:40:22.740Z,101275.30
2019-04-21T05:42:59.822Z,101275.70
2019-04-21T05:45:34.849Z,101272.57
2019-04-21T05:48:17.268Z,101268.83
2019-04-21T05:50:36.477Z,101270.02
2019-04-21T05:53:09.766Z,101272.32
2019-04-21T05:55:46.063Z,101271.58
2019-04-21T05:58:20.999Z,101274.38
2019-04-21T06:01:22.622Z,101272.55
2019-04-21T06:03:32.382Z,101266.79
2019-04-21T06:11:05.401Z,101271.48
2019-04-21T06:13:34.817Z,101266.20
2019-04-21T06:16:03.225Z,101269.18
2019-04-21T06:18:44.869Z,101263.64
2019-04-21T06:21:06.965Z,101261.38
2019-04-21T06:23:36.293Z,101262.11
2019-04-21T06:28:40.172Z,101250.33
2019-04-21T06:31:27.167Z,101255.42
2019-04-21T06:33:45.922Z,101256.09
2019-04-21T06:36:31.506Z,101247.67
2019-04-21T06:39:06.389Z,101254.88
2019-04-21T06:41:31.538Z,101249.45
2019-04-21T06:46:43.822Z,101255.61
2019-04-21T06:49:24.159Z,101248.11
2019-04-21T06:51:43.591Z,101251.33
2019-04-21T06:54:14.370Z,101244.03
2019-04-21T06:57:03.247Z,101245.81
2019-04-21T06:59:13.437Z,101245.16
2019-04-21T07:02:08.834Z,101244.39
2019-04-21T07:04:29.546Z,101237.82
2019-04-21T07:06:54.639Z,101234.30
2019-04-21T07:09:49.959Z,101230.47
2019-04-21T07:11:55.105Z,101235.16
2019-04-21T07:14:42.086Z,101239.88
2019-04-21T07:17:06.342Z,101235.44
2019-04-21T07:19:34.699Z,101235.16
2019-04-21T07:22:03.158Z,101228.47
2019-04-21T07:24:41.743Z,101229.30
2019-04-21T07:27:11.800Z,101226.73
2019-04-21T07:29:41.623Z,101222.20
2019-04-21T07:32:10.413Z,101223.54
2019-04-21T07:34:38.402Z,101224.00
2019-04-21T07:37:12.541Z,101222.88
2019-04-21T07:39:40.252Z,101223.84
2019-04-21T07:42:09.165Z,101226.52
2019-04-21T07:44:42.344Z,101226.44
2019-04-21T07:47:15.752Z,101222.39
2019-04-21T07:49:57.469Z,101224.47
2019-04-21T07:52:34.664Z,101225.36
2019-04-21T07:57:34.493Z,101210.72
2019-04-21T08:02:38.518Z,101200.02
2019-04-21T08:05:13.095Z,101188.48
2019-04-21T08:07:59.521Z,101199.34
2019-04-21T08:10:11.643Z,101198.30
2019-04-21T08:12:39.073Z,101191.44
2019-04-21T08:17:42.595Z,101190.45
2019-04-21T08:20:14.029Z,101177.97
2019-04-21T08:30:19.016Z,101165.73
2019-04-21T08:33:00.877Z,101164.14
2019-04-21T08:35:49.502Z,101165.13
2019-04-21T08:37:57.024Z,101160.30
2019-04-21T08:40:34.724Z,101159.28
2019-04-21T08:42:55.229Z,101155.22
2019-04-21T08:48:02.737Z,101152.30
2019-04-21T08:50:30.608Z,101157.03
2019-04-21T08:53:22.562Z,101149.98
2019-04-21T08:55:42.521Z,101137.05
2019-04-21T08:58:26.786Z,101135.16
2019-04-21T09:01:01.801Z,101137.21
2019-04-21T09:03:49.551Z,101123.67
2019-04-21T09:06:27.419Z,101129.75
2019-04-21T09:08:51.999Z,101119.40
2019-04-21T09:11:16.286Z,101119.03
2019-04-21T09:13:50.673Z,101122.67
2019-04-21T09:16:21.919Z,101108.48
2019-04-21T09:18:45.637Z,101111.31
2019-04-21T09:21:28.183Z,101110.73
2019-04-21T09:23:56.363Z,101109.94
2019-04-21T09:26:29.445Z,101111.39
2019-04-21T09:28:53.381Z,101109.77
2019-04-21T09:31:19.180Z,101101.77
2019-04-21T09:33:48.802Z,101106.58
2019-04-21T09:36:19.576Z,101096.94
2019-04-21T09:38:56.095Z,101087.28
2019-04-21T09:41:22.151Z,101087.27
2019-04-21T09:43:53.629Z,101089.05
2019-04-21T09:46:20.884Z,101080.59
2019-04-21T09:48:58.638Z,101079.03
2019-04-21T09:51:21.708Z,101076.59
2019-04-21T09:53:58.448Z,101064.92
2019-04-21T09:56:32.072Z,101063.48
2019-04-21T09:59:05.564Z,101059.23
2019-04-21T10:01:36.410Z,101054.19
2019-04-21T10:04:00.199Z,101049.50
2019-04-21T10:06:28.401Z,101045.24
2019-04-21T10:09:03.996Z,101041.20
2019-04-21T10:11:29.271Z,101036.74
2019-04-21T10:13:58.894Z,101033.91
2019-04-21T10:16:28.099Z,101035.07
2019-04-21T10:18:58.846Z,101030.80
2019-04-21T10:21:29.404Z,101023.31
2019-04-21T10:23:59.841Z,101027.09
2019-04-21T10:26:30.551Z,101017.61
2019-04-21T10:29:08.570Z,101009.94
2019-04-21T10:31:32.436Z,101011.88
2019-04-21T10:34:03.138Z,100999.76
2019-04-21T10:36:33.197Z,100996.87
2019-04-21T10:39:04.213Z,100990.97
2019-04-21T10:41:35.160Z,100997.00
2019-04-21T10:44:05.075Z,100991.50
2019-04-21T10:46:35.013Z,100986.04
2019-04-21T10:49:04.778Z,100991.00
2019-04-21T10:51:35.144Z,100982.87
2019-04-21T10:54:06.168Z,100977.78
2019-04-21T10:56:41.122Z,100978.54
2019-04-21T10:59:08.032Z,100983.12
2019-04-21T11:01:38.917Z,100969.97
2019-04-21T11:04:19.537Z,100970.91
2019-04-21T11:06:42.264Z,100957.12
2019-04-21T11:09:12.075Z,100959.06
2019-04-21T11:11:44.574Z,100948.95
2019-04-21T11:14:13.461Z,100944.98
2019-04-21T11:16:45.840Z,100944.11
2019-04-21T11:19:15.846Z,100939.39
2019-04-21T11:21:45.527Z,100943.78
2019-04-21T11:24:16.454Z,100938.70
2019-04-21T11:26:47.642Z,100937.03
2019-04-21T11:29:17.342Z,100934.77
2019-04-21T11:31:47.334Z,100933.13
2019-04-21T11:34:16.942Z,100923.25
2019-04-21T11:36:46.490Z,100923.62
2019-04-21T11:39:27.337Z,100921.36
2019-04-21T11:41:49.813Z,100911.66
2019-04-21T11:44:22.839Z,100906.94
2019-04-21T11:46:52.056Z,100903.81
2019-04-21T11:49:22.373Z,100902.29
2019-04-21T11:51:53.125Z,100900.61
2019-04-21T11:54:22.715Z,100897.66
2019-04-21T11:56:52.843Z,100892.09
2019-04-21T11:59:23.723Z,100894.61
2019-04-21T12:01:54.044Z,100884.23
2019-04-21T12:04:23.630Z,100875.25
2019-04-21T12:06:55.621Z,100876.95
2019-04-21T12:09:25.093Z,100879.86
2019-04-21T12:11:54.721Z,100880.58
2019-04-21T12:14:24.197Z,100876.08
2019-04-21T12:16:55.101Z,100863.91
2019-04-21T12:19:25.012Z,100864.66
2019-04-21T12:22:05.346Z,100869.03
2019-04-21T12:24:27.678Z,100860.23
2019-04-21T12:26:57.959Z,100863.53
2019-04-21T12:29:29.029Z,100857.37
2019-04-21T12:32:01.399Z,100853.05
2019-04-21T12:34:32.159Z,100848.73
2019-04-21T12:37:01.736Z,100843.80
2019-04-21T12:39:32.632Z,100839.92
2019-04-21T12:42:02.674Z,100837.17
2019-04-21T12:44:33.567Z,100835.88
2019-04-21T12:47:03.687Z,100836.17
2019-04-21T12:49:33.858Z,100826.81
2019-04-21T12:52:03.865Z,100825.48
2019-04-21T12:54:33.788Z,100815.94
2019-04-21T12:57:03.494Z,100823.37
2019-04-21T12:59:34.555Z,100814.09
2019-04-21T13:02:04.317Z,100817.53
2019-04-21T13:04:33.836Z,100809.67
2019-04-21T13:07:03.740Z,100800.55
2019-04-21T13:09:34.258Z,100796.48
2019-04-21T13:12:04.943Z,100789.41
2019-04-21T13:14:35.755Z,100788.20
2019-04-21T13:17:05.703Z,100777.88
2019-04-21T13:19:35.708Z,100780.08
2019-04-21T13:22:06.032Z,100777.42
2019-04-21T13:24:35.865Z,100770.35
2019-04-21T13:27:07.094Z,100765.86
2019-04-21T13:29:36.951Z,100758.97
2019-04-21T13:32:07.376Z,100756.06
2019-04-21T13:34:37.975Z,100745.27
2019-04-21T13:37:07.761Z,100749.23
2019-04-21T13:40:09.959Z,100746.69
2019-04-21T13:42:36.353Z,100734.66
2019-04-21T13:45:00.971Z,100728.28
2019-04-21T13:47:30.506Z,100728.98
2019-04-21T13:50:02.888Z,100731.71
2019-04-21T13:52:33.047Z,100720.95
2019-04-21T13:55:03.417Z,100712.17
2019-04-21T13:57:34.519Z,100712.52
2019-04-21T14:00:07.198Z,100705.79
2019-04-21T14:02:36.708Z,100706.14
2019-04-21T14:05:11.804Z,100700.39
2019-04-21T14:07:41.917Z,100694.45
2019-04-21T14:10:14.036Z,100694.97
2019-04-21T14:12:44.498Z,100684.19
2019-04-21T14:15:15.128Z,100694.45
2019-04-21T14:17:44.699Z,100686.30
2019-04-21T14:20:15.313Z,100682.05
2019-04-21T14:22:46.349Z,100680.03
2019-04-21T14:25:17.478Z,100673.56
2019-04-21T14:28:06.566Z,100667.73
2019-04-21T14:30:36.555Z,100671.97
2019-04-21T14:33:07.790Z,100671.45
2019-04-21T14:35:38.824Z,100669.66
2019-04-21T14:38:09.048Z,100660.81
2019-04-21T14:40:38.903Z,100656.22
2019-04-21T14:43:08.359Z,100653.50
2019-04-21T14:45:45.288Z,100648.81
2019-04-21T14:48:21.222Z,100654.24
2019-04-21T14:50:54.985Z,100652.56
2019-04-21T14:53:29.409Z,100650.45
2019-04-21T14:55:59.572Z,100643.10
2019-04-21T14:58:29.078Z,100640.20
2019-04-21T15:01:04.166Z,100639.33
2019-04-21T15:03:34.332Z,100635.98
2019-04-21T15:06:05.419Z,100628.34
2019-04-21T15:08:35.420Z,100623.75
2019-04-21T15:11:05.355Z,100625.80
2019-04-21T15:13:35.519Z,100620.39
2019-04-21T15:16:06.865Z,100623.86
2019-04-21T15:18:36.886Z,100617.05
2019-04-21T15:21:07.790Z,100616.66
2019-04-21T15:23:38.194Z,100613.66
2019-04-21T15:26:08.278Z,100611.00
2019-04-21T15:28:40.546Z,100609.59
2019-04-21T15:31:12.719Z,100602.69
2019-04-21T15:33:41.207Z,100603.33
2019-04-21T15:36:11.305Z,100604.31
2019-04-21T15:38:40.917Z,100608.34
2019-04-21T15:41:10.966Z,100594.31
2019-04-21T15:43:42.585Z,100593.33
2019-04-21T15:46:13.051Z,100586.72
2019-04-21T15:48:42.958Z,100579.89
2019-04-21T15:51:13.648Z,100572.47
2019-04-21T15:53:45.833Z,100573.54
2019-04-21T15:56:26.867Z,100572.84
2019-04-21T15:59:10.494Z,100567.18
2019-04-21T16:01:48.462Z,100564.61
2019-04-21T16:04:18.874Z,100569.13
2019-04-21T16:06:49.822Z,100561.53
2019-04-21T16:09:22.417Z,100563.84
2019-04-21T16:11:51.650Z,100561.90
2019-04-21T16:14:22.638Z,100559.50
2019-04-21T16:16:53.703Z,100562.61
2019-04-21T16:19:23.291Z,100552.19
2019-04-21T16:21:52.900Z,100543.00
2019-04-21T16:24:23.311Z,100548.30
2019-04-21T16:26:53.067Z,100542.30
2019-04-21T16:29:23.051Z,100537.00
2019-04-21T16:31:53.247Z,100540.70
2019-04-21T16:34:34.475Z,100531.40
2019-04-21T16:36:54.122Z,100531.91
2019-04-21T16:39:23.750Z,100532.80
2019-04-21T16:41:54.455Z,100522.53
2019-04-21T16:44:25.309Z,100519.55
2019-04-21T16:46:55.706Z,100519.39
2019-04-21T16:49:25.500Z,100516.56
2019-04-21T16:52:12.262Z,100513.19
2019-04-21T16:54:44.120Z,100508.28
2019-04-21T16:57:15.603Z,100509.39
2019-04-21T16:59:46.801Z,100511.28
2019-04-21T17:02:16.550Z,100506.96
2019-04-21T17:04:46.489Z,100507.82
2019-04-21T17:07:16.110Z,100500.63
2019-04-21T17:09:46.463Z,100490.55
2019-04-21T17:12:18.305Z,100489.73
2019-04-21T17:15:01.149Z,100486.91
2019-04-21T17:17:47.522Z,100481.59
2019-04-21T17:19:53.803Z,100487.09
2019-04-21T17:22:21.809Z,100483.01
2019-04-21T17:24:52.564Z,100478.93
2019-04-21T17:27:23.039Z,100471.78
2019-04-21T17:29:52.752Z,100464.70
2019-04-21T17:32:26.337Z,100463.18
2019-04-21T17:34:54.137Z,100462.47
2019-04-21T17:37:26.792Z,100460.21
2019-04-21T17:39:56.736Z,100460.80
2019-04-21T17:42:34.438Z,100454.99
2019-04-21T17:44:57.624Z,100455.22
2019-04-21T17:47:41.492Z,100456.41
2019-04-21T17:50:19.888Z,100453.10
2019-04-21T17:53:08.751Z,100455.49
2019-04-21T17:55:46.082Z,100448.06
2019-04-21T17:58:27.989Z,100451.23
2019-04-21T18:03:52.213Z,100459.12
2019-04-21T18:06:02.359Z,100456.20
2019-04-21T18:08:40.140Z,100460.68
2019-04-21T18:11:03.448Z,100465.58
2019-04-21T18:13:26.594Z,100466.89
2019-04-21T18:16:08.285Z,100464.25
2019-04-21T18:18:26.522Z,100470.15
2019-04-21T18:21:09.636Z,100470.58
2019-04-21T18:23:50.537Z,100469.30
2019-04-21T18:26:27.100Z,100478.56
2019-04-21T18:28:44.450Z,100482.60
2019-04-21T18:31:14.801Z,100479.02
2019-04-21T18:33:53.176Z,100483.77
2019-04-21T18:36:28.246Z,100488.14
2019-04-21T18:39:12.278Z,100486.38
2019-04-21T18:41:36.554Z,100485.72
2019-04-21T18:44:46.322Z,100486.55
2019-04-21T18:47:11.854Z,100489.96
2019-04-21T18:49:21.430Z,100497.68
2019-04-21T18:52:20.676Z,100499.90
2019-04-21T18:54:58.150Z,100504.88
2019-04-21T18:57:22.914Z,100504.84
2019-04-21T18:59:47.680Z,100507.91
2019-04-21T19:02:19.086Z,100514.53
2019-04-21T19:04:48.416Z,100509.38
2019-04-21T19:07:32.703Z,100503.98
2019-04-21T19:13:03.636Z,100509.89
2019-04-21T19:15:07.709Z,100510.63
2019-04-21T19:22:42.079Z,100503.72
2019-04-21T19:25:16.416Z,100516.05
2019-04-21T19:27:51.661Z,100514.16
2019-04-21T19:32:45.472Z,100515.09
2019-04-21T19:35:05.520Z,100511.99
2019-04-21T19:37:41.052Z,100510.48
2019-04-21T19:40:25.210Z,100509.14
2019-04-21T19:42:51.170Z,100508.03
2019-04-21T19:45:25.524Z,100510.50
2019-04-21T19:48:02.294Z,100510.20
2019-04-21T19:50:35.261Z,100516.22
2019-04-21T19:52:56.884Z,100516.08
2019-04-21T19:55:16.234Z,100514.77
2019-04-21T19:57:46.826Z,100512.23
2019-04-21T20:00:17.530Z,100511.72
2019-04-21T20:02:50.437Z,100513.78
2019-04-21T20:05:25.663Z,100512.23
2019-04-21T20:08:07.983Z,100512.08
2019-04-21T20:10:44.598Z,100504.17
2019-04-21T20:13:18.121Z,100505.00
2019-04-21T20:15:44.720Z,100504.47
2019-04-21T20:18:09.600Z,100502.55
2019-04-21T20:20:28.899Z,100505.80
2019-04-21T20:22:59.342Z,100502.69
2019-04-21T20:25:30.962Z,100498.98
2019-04-21T20:28:07.274Z,100494.34
2019-04-21T20:30:53.202Z,100501.22
2019-04-21T20:33:45.782Z,100500.93
2019-04-21T20:35:55.886Z,100496.07
2019-04-21T20:38:19.130Z,100491.78
2019-04-21T20:40:45.905Z,100490.27
2019-04-21T20:43:26.937Z,100495.92
2019-04-21T20:46:00.497Z,100494.59
2019-04-21T20:48:21.154Z,100491.91
2019-04-21T20:51:00.630Z,100490.36
2019-04-21T20:53:30.340Z,100487.23
2019-04-21T20:55:58.150Z,100483.16
2019-04-21T20:58:34.240Z,100477.82
2019-04-21T21:01:20.774Z,100485.23
2019-04-21T21:03:35.253Z,100489.03
2019-04-21T21:05:58.549Z,100485.88
2019-04-21T21:08:40.044Z,100485.52
2019-04-21T21:11:00.905Z,100482.16
2019-04-21T21:13:44.419Z,100482.01
2019-04-21T21:16:24.693Z,100478.48
2019-04-21T21:21:17.120Z,100476.36
2019-04-21T21:23:51.176Z,100474.56
2019-04-21T21:26:21.792Z,100472.20
2019-04-21T21:28:43.031Z,100477.37
2019-04-21T21:31:17.742Z,100471.66
2019-04-21T21:33:59.253Z,100475.88
2019-04-21T21:36:19.512Z,100472.13
2019-04-21T21:38:54.564Z,100472.56
2019-04-21T21:41:16.395Z,100465.47
2019-04-21T21:43:39.483Z,100470.80
2019-04-21T21:46:26.656Z,100470.06
2019-04-21T21:48:53.824Z,100470.68
2019-04-21T21:51:20.508Z,100477.66
2019-04-21T21:53:44.389Z,100473.32
2019-04-21T21:56:14.493Z,100473.93
2019-04-21T21:58:46.217Z,100468.80
2019-04-21T22:01:20.786Z,100475.99
2019-04-21T22:03:52.550Z,100473.12
2019-04-21T22:06:23.028Z,100468.16
2019-04-21T22:08:50.421Z,100465.64
2019-04-21T22:11:20.215Z,100469.72
2019-04-21T22:13:57.920Z,100470.88
2019-04-21T22:16:23.007Z,100465.69
2019-04-21T22:19:17.327Z,100464.52
2019-04-21T22:21:41.538Z,100467.74
2019-04-21T22:24:04.827Z,100466.80
2019-04-21T22:26:27.245Z,100466.55
2019-04-21T22:28:58.156Z,100466.09
2019-04-21T22:31:31.569Z,100461.93
2019-04-21T22:34:03.823Z,100469.03
2019-04-21T22:36:44.827Z,100462.28
2019-04-21T22:39:19.493Z,100463.25
2019-04-21T22:41:38.083Z,100467.47
2019-04-21T22:44:04.888Z,100463.93
2019-04-21T22:46:36.049Z,100463.60
2019-04-21T22:49:09.356Z,100456.72
2019-04-21T22:51:42.724Z,100454.20
2019-04-21T22:54:08.414Z,100460.80
2019-04-21T22:56:50.479Z,100453.52
2019-04-21T22:59:15.158Z,100446.02
2019-04-21T23:01:46.368Z,100448.84
2019-04-21T23:04:12.406Z,100453.24
2019-04-21T23:06:44.492Z,100451.05
2019-04-21T23:09:14.982Z,100442.13
2019-04-21T23:11:49.220Z,100446.52
2019-04-21T23:14:17.532Z,100439.77
2019-04-21T23:16:50.686Z,100434.81
2019-04-21T23:19:32.402Z,100436.98
2019-04-21T23:22:14.143Z,100446.31
2019-04-21T23:24:49.989Z,100434.76
2019-04-21T23:27:07.902Z,100430.50
2019-04-21T23:29:52.639Z,100435.60
2019-04-21T23:32:14.971Z,100429.95
2019-04-21T23:34:32.474Z,100429.88
2019-04-21T23:37:06.609Z,100426.78
2019-04-21T23:39:32.029Z,100422.88
2019-04-21T23:42:01.346Z,100416.78
2019-04-21T23:44:33.892Z,100419.24
2019-04-21T23:47:06.588Z,100416.11
2019-04-21T23:49:42.953Z,100416.53
2019-04-21T23:52:09.073Z,100410.83
2019-04-21T23:54:37.479Z,100413.22
2019-04-21T23:57:14.080Z,100409.48
2019-04-21T23:59:44.730Z,100405.31
